Time;durP1;ratioP1;P1;durP2;ratioP2;P2;SDS_P1;SDS_P2;PMS_P1;PMS_P2;Temp;Humidity;BMP_temperature;BMP_pressure;BME280_temperature;BME280_humidity;BME280_pressure;Samples;Min_cycle;Max_cycle;Signal;HPM_P1;HPM_P2
2021/10/30 00:01:04;;;;;;;245.52;78.25;;;;;;;2.73;100.00;98357.69;5012862;28;20038;-78
2021/10/30 00:03:30;;;;;;;312.88;78.38;;;;;;;2.79;100.00;98355.94;5014009;28;20022;-81
2021/10/30 00:05:55;;;;;;;187.63;72.03;;;;;;;2.80;100.00;98350.28;5015318;28;20050;-81
2021/10/30 00:08:21;;;;;;;227.13;71.95;;;;;;;2.78;100.00;98348.91;5017789;28;20046;-80
2021/10/30 00:10:47;;;;;;;218.95;69.97;;;;;;;2.68;100.00;98342.22;5018447;28;20003;-81
2021/10/30 00:13:12;;;;;;;330.50;79.65;;;;;;;2.69;100.00;98356.53;5018513;28;20123;-78
2021/10/30 00:15:40;;;;;;;309.33;75.47;;;;;;;2.77;100.00;98352.66;5018820;28;20089;-74
2021/10/30 00:18:05;;;;;;;444.23;84.70;;;;;;;2.75;100.00;98350.19;5018095;28;20037;-81
2021/10/30 00:20:32;;;;;;;238.63;76.55;;;;;;;2.76;100.00;98346.41;5017849;28;20011;-80
2021/10/30 00:22:57;;;;;;;350.00;77.38;;;;;;;2.61;100.00;98343.38;5018633;28;20050;-77
2021/10/30 00:25:23;;;;;;;508.40;83.32;;;;;;;2.49;100.00;98345.25;5018207;28;20011;-77
2021/10/30 00:27:48;;;;;;;343.08;82.07;;;;;;;2.51;100.00;98340.44;5018216;28;20014;-81
2021/10/30 00:30:14;;;;;;;248.30;78.20;;;;;;;2.63;100.00;98335.88;5017703;28;20022;-80
2021/10/30 00:32:39;;;;;;;469.60;86.13;;;;;;;2.60;100.00;98331.75;5018148;28;20018;-78
2021/10/30 00:35:05;;;;;;;338.95;76.90;;;;;;;2.62;100.00;98331.53;5017939;28;20027;-81
2021/10/30 00:37:31;;;;;;;245.52;76.05;;;;;;;2.64;100.00;98335.63;5018649;28;20018;-77
2021/10/30 00:39:56;;;;;;;195.93;77.40;;;;;;;2.77;100.00;98326.47;5010186;28;20031;-80
2021/10/30 00:42:21;;;;;;;218.52;74.15;;;;;;;2.89;100.00;98337.25;5005651;28;20037;-80
2021/10/30 00:44:47;;;;;;;287.27;77.80;;;;;;;2.85;100.00;98334.19;5005637;28;20034;-79
2021/10/30 00:47:14;;;;;;;307.98;73.95;;;;;;;2.87;100.00;98337.50;4995405;28;20411;-79
2021/10/30 00:49:42;;;;;;;349.45;74.40;;;;;;;2.78;100.00;98336.22;4996859;28;20046;-79
2021/10/30 00:52:09;;;;;;;317.92;77.13;;;;;;;2.87;100.00;98336.69;4995904;28;20034;-80
2021/10/30 00:54:37;;;;;;;321.38;79.68;;;;;;;2.75;100.00;98341.25;4996261;28;20076;-79
2021/10/30 00:57:04;;;;;;;425.38;89.25;;;;;;;2.86;100.00;98333.16;5004561;28;20385;-75
2021/10/30 00:59:30;;;;;;;262.48;77.28;;;;;;;2.88;100.00;98336.41;5015707;28;20002;-75
2021/10/30 01:01:55;;;;;;;289.88;75.70;;;;;;;2.87;100.00;98332.09;5000024;28;20033;-78
2021/10/30 01:04:21;;;;;;;241.70;68.28;;;;;;;2.72;100.00;98337.16;5000060;28;20073;-79
2021/10/30 01:06:50;;;;;;;206.05;65.60;;;;;;;2.77;100.00;98342.66;4997701;28;20574;-79
2021/10/30 01:09:18;;;;;;;208.15;65.55;;;;;;;2.79;100.00;98332.44;4996456;28;20022;-79
2021/10/30 01:11:43;;;;;;;154.50;66.63;;;;;;;2.80;100.00;98320.59;4996331;28;20081;-79
2021/10/30 01:14:10;;;;;;;145.77;64.82;;;;;;;2.75;100.00;98320.50;4996463;28;20022;-79
2021/10/30 01:16:36;;;;;;;218.18;64.95;;;;;;;2.77;100.00;98314.84;4996009;28;20034;-79
2021/10/30 01:19:02;;;;;;;185.45;65.95;;;;;;;2.67;100.00;98326.22;4995892;28;20033;-79
2021/10/30 01:21:35;;;;;;;178.63;67.63;;;;;;;2.54;100.00;98316.50;4996720;28;20026;-79
2021/10/30 01:24:03;;;;;;;158.07;63.28;;;;;;;2.53;100.00;98324.84;4998915;28;20034;-79
2021/10/30 01:26:29;;;;;;;137.38;61.40;;;;;;;2.61;100.00;98332.56;4999623;28;20026;-79
2021/10/30 01:28:54;;;;;;;171.30;63.65;;;;;;;2.50;100.00;98320.75;5001611;28;20061;-79
2021/10/30 01:31:23;;;;;;;178.50;65.13;;;;;;;2.60;100.00;98314.75;5001385;28;20049;-80
2021/10/30 01:33:50;;;;;;;208.85;66.07;;;;;;;2.67;100.00;98304.63;4999515;28;20022;-80
2021/10/30 01:36:18;;;;;;;322.83;69.97;;;;;;;2.67;100.00;98307.31;5001649;28;20034;-79
2021/10/30 01:38:44;;;;;;;247.25;65.88;;;;;;;2.56;100.00;98316.28;5003052;28;20030;-79
2021/10/30 01:41:10;;;;;;;219.73;68.55;;;;;;;2.65;100.00;98314.84;5013337;28;20034;-80
2021/10/30 01:43:36;;;;;;;288.23;74.13;;;;;;;2.62;100.00;98315.31;5010438;28;20068;-79
2021/10/30 01:46:02;;;;;;;207.13;71.00;;;;;;;2.59;100.00;98319.31;5001593;28;20083;-79
2021/10/30 01:48:29;;;;;;;180.23;65.85;;;;;;;2.59;100.00;98313.94;4999351;28;20029;-79
2021/10/30 01:50:55;;;;;;;423.42;77.75;;;;;;;2.52;100.00;98307.00;4997947;28;20479;-79
2021/10/30 01:53:20;;;;;;;197.63;67.43;;;;;;;2.44;100.00;98310.06;4999059;28;20038;-79
2021/10/30 01:55:46;;;;;;;471.02;72.88;;;;;;;2.23;100.00;98316.00;4997806;28;20026;-78
2021/10/30 01:58:13;;;;;;;582.28;88.78;;;;;;;1.99;100.00;98302.50;4996233;28;20025;-79
2021/10/30 02:00:39;;;;;;;497.52;89.50;;;;;;;1.90;100.00;98303.06;4996253;28;20031;-78
2021/10/30 02:03:04;;;;;;;453.33;85.63;;;;;;;2.01;100.00;98296.84;4996478;28;20053;-78
2021/10/30 02:05:30;;;;;;;476.40;87.35;;;;;;;2.12;100.00;98298.75;4996792;28;20035;-78
2021/10/30 02:07:55;;;;;;;412.52;80.82;;;;;;;2.08;100.00;98298.41;4996840;28;20094;-78
2021/10/30 02:10:21;;;;;;;398.58;79.53;;;;;;;2.11;100.00;98303.34;4997186;28;20118;-78
2021/10/30 02:12:46;;;;;;;267.17;71.28;;;;;;;2.15;100.00;98301.00;5000293;28;20057;-78
2021/10/30 02:15:12;;;;;;;245.20;69.75;;;;;;;2.29;100.00;98302.41;5000913;28;20037;-76
2021/10/30 02:17:38;;;;;;;259.83;68.53;;;;;;;2.29;100.00;98307.78;5001140;28;20022;-79
2021/10/30 02:20:06;;;;;;;221.23;69.40;;;;;;;2.40;100.00;98292.66;5004691;28;20149;-79
2021/10/30 02:22:32;;;;;;;419.60;72.40;;;;;;;2.44;100.00;98294.69;5008594;28;20036;-78
2021/10/30 02:24:57;;;;;;;193.85;67.35;;;;;;;2.51;100.00;98289.97;5001775;28;20030;-79
2021/10/30 02:27:23;;;;;;;271.55;72.80;;;;;;;2.46;100.00;98294.44;4998478;28;20022;-78
2021/10/30 02:29:49;;;;;;;161.68;63.00;;;;;;;2.59;100.00;98292.31;4997479;28;20080;-78
2021/10/30 02:32:14;;;;;;;139.02;61.05;;;;;;;2.56;100.00;98283.88;4998567;28;20030;-78
2021/10/30 02:34:40;;;;;;;142.10;64.22;;;;;;;2.56;100.00;98283.88;4998049;28;20018;-78
2021/10/30 02:37:08;;;;;;;146.68;59.45;;;;;;;2.57;100.00;98282.78;4999058;28;20081;-79
2021/10/30 02:39:33;;;;;;;141.75;66.55;;;;;;;2.57;100.00;98280.91;4997689;28;20424;-79
2021/10/30 02:41:59;;;;;;;170.93;64.80;;;;;;;2.62;100.00;98285.63;4999553;28;20041;-78
2021/10/30 02:44:25;;;;;;;146.25;62.28;;;;;;;2.53;100.00;98268.16;4999989;28;20135;-79
2021/10/30 02:46:51;;;;;;;140.80;59.00;;;;;;;2.61;100.00;98278.56;4999234;28;20034;-79
2021/10/30 02:49:17;;;;;;;144.20;60.28;;;;;;;2.63;100.00;98281.88;4999689;28;20022;-80
2021/10/30 02:51:42;;;;;;;131.77;58.15;;;;;;;2.71;100.00;98286.91;4998214;28;20034;-79
2021/10/30 02:54:08;;;;;;;142.52;58.00;;;;;;;2.64;100.00;98289.72;5009423;28;20026;-80
2021/10/30 02:56:34;;;;;;;127.63;62.05;;;;;;;2.61;100.00;98290.19;5011159;28;20086;-80
2021/10/30 02:59:00;;;;;;;155.02;59.47;;;;;;;2.65;100.00;98285.97;5014423;28;20050;-80
2021/10/30 03:01:25;;;;;;;233.05;61.40;;;;;;;2.61;100.00;98278.56;5015764;28;20034;-80
2021/10/30 03:03:51;;;;;;;153.60;60.85;;;;;;;2.72;100.00;98282.31;5009362;28;20034;-80
2021/10/30 03:06:21;;;;;;;144.02;57.40;;;;;;;2.65;100.00;98274.34;5010789;28;20128;-80
2021/10/30 03:08:46;;;;;;;151.02;62.25;;;;;;;2.71;100.00;98270.69;5013844;28;20050;-80
2021/10/30 03:11:12;;;;;;;160.02;56.78;;;;;;;2.58;100.00;98273.66;5009497;28;20049;-79
2021/10/30 03:13:37;;;;;;;157.98;60.90;;;;;;;2.54;100.00;98265.19;5010412;28;20034;-80
2021/10/30 03:16:02;;;;;;;160.68;59.58;;;;;;;2.51;100.00;98270.25;5013686;28;20034;-80
2021/10/30 03:18:28;;;;;;;288.17;61.38;;;;;;;2.48;100.00;98268.00;5014016;28;20041;-80
2021/10/30 03:20:53;;;;;;;142.95;59.58;;;;;;;2.55;100.00;98268.72;5014513;28;20010;-80
2021/10/30 03:23:19;;;;;;;160.73;59.83;;;;;;;2.53;100.00;98268.16;5013499;28;20042;-80
2021/10/30 03:25:44;;;;;;;140.10;59.22;;;;;;;2.59;100.00;98275.31;5007245;28;20030;-79
2021/10/30 03:28:09;;;;;;;164.25;59.78;;;;;;;2.60;100.00;98271.56;5004715;28;20018;-80
2021/10/30 03:30:36;;;;;;;151.90;60.47;;;;;;;2.52;100.00;98264.63;4999743;28;20034;-78
2021/10/30 03:33:02;;;;;;;213.10;65.35;;;;;;;2.52;100.00;98269.19;4994309;28;20034;-76
2021/10/30 03:35:27;;;;;;;196.82;61.60;;;;;;;2.58;100.00;98263.69;5004308;28;20026;-78
2021/10/30 03:37:53;;;;;;;191.30;57.63;;;;;;;2.56;100.00;98265.81;5003260;28;20045;-78
2021/10/30 03:40:18;;;;;;;172.45;57.97;;;;;;;2.41;100.00;98262.72;5019355;28;20014;-72
2021/10/30 03:42:43;;;;;;;170.65;57.15;;;;;;;2.46;100.00;98267.44;5019704;28;20015;-72
2021/10/30 03:45:09;;;;;;;174.95;62.03;;;;;;;2.54;100.00;98273.28;5019989;28;20030;-82
2021/10/30 03:47:35;;;;;;;316.15;65.60;;;;;;;2.55;100.00;98263.31;5019782;28;20017;-81
2021/10/30 03:50:00;;;;;;;157.80;57.70;;;;;;;2.55;100.00;98263.31;5019876;28;20022;-73
2021/10/30 03:52:26;;;;;;;138.90;57.85;;;;;;;2.59;100.00;98264.50;5019813;28;20007;-79
2021/10/30 03:54:53;;;;;;;177.00;58.13;;;;;;;2.55;100.00;98266.03;5019915;28;20030;-81
2021/10/30 03:57:19;;;;;;;238.07;58.13;;;;;;;2.53;100.00;98277.06;5019199;28;20030;-79
2021/10/30 03:59:44;;;;;;;120.25;53.72;;;;;;;2.56;100.00;98275.78;5018186;28;20026;-80
2021/10/30 04:02:09;;;;;;;146.50;54.28;;;;;;;2.64;100.00;98276.22;5018653;28;20018;-77
2021/10/30 04:04:35;;;;;;;208.15;54.85;;;;;;;2.59;100.00;98286.09;5018813;28;20026;-82
2021/10/30 04:07:01;;;;;;;135.48;50.55;;;;;;;2.58;100.00;98276.34;5018870;28;20058;-80
2021/10/30 04:09:26;;;;;;;185.98;52.00;;;;;;;2.49;100.00;98285.88;5018815;28;20061;-80
2021/10/30 04:11:53;;;;;;;163.63;52.00;;;;;;;2.39;100.00;98282.94;5018317;28;20037;-77
2021/10/30 04:14:19;;;;;;;219.05;55.03;;;;;;;2.29;100.00;98280.81;5019237;28;20021;-77
2021/10/30 04:16:45;;;;;;;196.18;53.08;;;;;;;2.27;100.00;98279.41;5018578;28;20022;-75
2021/10/30 04:19:10;;;;;;;162.13;54.22;;;;;;;2.27;100.00;98274.00;5019374;28;20070;-78
2021/10/30 04:21:36;;;;;;;181.57;58.88;;;;;;;2.22;100.00;98272.03;5017159;28;20022;-77
2021/10/30 04:24:02;;;;;;;256.38;58.15;;;;;;;2.26;100.00;98280.44;5018909;28;20015;-73
2021/10/30 04:26:28;;;;;;;312.00;58.45;;;;;;;2.30;100.00;98270.84;5019021;28;20011;-71
2021/10/30 04:28:55;;;;;;;209.57;62.15;;;;;;;2.24;100.00;98275.31;5018608;28;20061;-71
2021/10/30 04:31:23;;;;;;;224.02;59.55;;;;;;;1.96;100.00;98275.16;5019564;28;20054;-72
2021/10/30 04:33:52;;;;;;;192.00;58.28;;;;;;;1.94;100.00;98275.38;5019534;28;20021;-73
2021/10/30 04:36:18;;;;;;;168.52;56.35;;;;;;;2.05;100.00;98279.16;5019715;28;20014;-72
2021/10/30 04:38:45;;;;;;;209.55;56.45;;;;;;;2.10;100.00;98272.00;5019453;28;20082;-71
2021/10/30 04:41:11;;;;;;;248.70;57.75;;;;;;;2.15;100.00;98269.44;5019446;28;20049;-72
2021/10/30 04:43:37;;;;;;;191.35;58.38;;;;;;;2.20;100.00;98276.00;5018908;28;20021;-72
2021/10/30 04:46:03;;;;;;;155.05;57.17;;;;;;;2.14;100.00;98272.38;5019341;28;20019;-72
2021/10/30 04:48:28;;;;;;;178.38;57.28;;;;;;;2.23;100.00;98270.13;5019335;28;20026;-75
2021/10/30 04:50:54;;;;;;;148.93;56.28;;;;;;;2.32;100.00;98269.53;5019246;28;20025;-73
2021/10/30 04:53:19;;;;;;;133.02;58.42;;;;;;;2.36;100.00;98276.13;5018301;28;20041;-73
2021/10/30 04:55:44;;;;;;;126.90;55.20;;;;;;;2.41;100.00;98278.13;5018759;28;20034;-77
2021/10/30 04:58:10;;;;;;;161.18;56.05;;;;;;;2.31;100.00;98278.72;5018865;28;20023;-72
2021/10/30 05:00:35;;;;;;;131.98;54.28;;;;;;;2.35;100.00;98276.38;5018500;28;20089;-72
2021/10/30 05:03:01;;;;;;;142.07;53.28;;;;;;;2.36;100.00;98278.00;5019092;28;20018;-74
2021/10/30 05:05:26;;;;;;;130.35;53.55;;;;;;;2.41;100.00;98272.75;5019101;28;20017;-72
2021/10/30 05:07:52;;;;;;;130.35;55.47;;;;;;;2.48;100.00;98268.00;5018227;28;20081;-74
2021/10/30 05:10:17;;;;;;;122.45;52.10;;;;;;;2.44;100.00;98262.28;5018221;28;20006;-80
2021/10/30 05:12:43;;;;;;;120.57;51.78;;;;;;;2.49;100.00;98265.09;5018829;28;20010;-72
2021/10/30 05:15:08;;;;;;;126.85;51.17;;;;;;;2.48;100.00;98268.00;5018840;28;20145;-72
2021/10/30 05:17:34;;;;;;;137.23;54.05;;;;;;;2.59;100.00;98268.03;5018578;28;20014;-75
2021/10/30 05:19:59;;;;;;;133.40;51.17;;;;;;;2.48;100.00;98266.13;5018014;28;20034;-73
2021/10/30 05:22:25;;;;;;;129.52;49.83;;;;;;;2.45;100.00;98263.09;5018685;28;20032;-76
2021/10/30 05:24:50;;;;;;;128.35;52.47;;;;;;;2.53;100.00;98266.28;5018649;28;20019;-72
2021/10/30 05:27:16;;;;;;;132.10;52.45;;;;;;;2.55;100.00;98263.31;5017978;28;20025;-73
2021/10/30 05:29:42;;;;;;;116.82;50.92;;;;;;;2.54;100.00;98261.66;5018569;28;20026;-72
2021/10/30 05:32:08;;;;;;;136.00;51.63;;;;;;;2.45;100.00;98257.69;5018603;28;20010;-72
2021/10/30 05:34:34;;;;;;;178.10;52.97;;;;;;;2.49;100.00;98261.56;5018664;28;20007;-73
2021/10/30 05:36:59;;;;;;;156.38;50.33;;;;;;;2.46;100.00;98253.94;5018286;28;20050;-73
2021/10/30 05:39:25;;;;;;;132.43;52.40;;;;;;;2.44;100.00;98259.59;5018243;28;20327;-81
2021/10/30 05:41:51;;;;;;;162.70;51.28;;;;;;;2.54;100.00;98267.06;4997147;28;20037;-74
2021/10/30 05:44:17;;;;;;;144.48;46.70;;;;;;;2.44;100.00;98270.38;4989766;28;20122;-75
2021/10/30 05:46:42;;;;;;;216.05;52.40;;;;;;;2.48;100.00;98268.84;4988946;28;20383;-74
2021/10/30 05:49:09;;;;;;;260.00;49.92;;;;;;;2.46;100.00;98267.44;4998327;28;20018;-79
2021/10/30 05:51:34;;;;;;;149.48;46.83;;;;;;;2.34;100.00;98263.94;5006667;28;20034;-76
2021/10/30 05:54:01;;;;;;;148.05;47.25;;;;;;;2.12;100.00;98274.47;5010658;28;20088;-78
2021/10/30 05:56:26;;;;;;;196.18;55.58;;;;;;;2.04;100.00;98272.13;4998195;28;20026;-79
2021/10/30 05:58:52;;;;;;;317.58;57.50;;;;;;;2.10;100.00;98269.31;5002537;28;20037;-79
2021/10/30 06:01:17;;;;;;;327.90;59.08;;;;;;;2.13;100.00;98281.53;5002841;28;20084;-80
2021/10/30 06:03:43;;;;;;;248.52;57.25;;;;;;;2.13;100.00;98274.22;5005030;28;20034;-81
2021/10/30 06:06:09;;;;;;;180.88;55.13;;;;;;;2.22;100.00;98268.50;5005757;28;20455;-72
2021/10/30 06:08:34;;;;;;;314.70;60.42;;;;;;;2.23;100.00;98275.53;4991605;28;20142;-82
2021/10/30 06:11:00;;;;;;;224.05;56.90;;;;;;;2.26;100.00;98275.88;4999753;28;20030;-79
2021/10/30 06:13:25;;;;;;;127.15;50.10;;;;;;;2.41;100.00;98275.44;4994431;28;20026;-78
2021/10/30 06:15:51;;;;;;;125.72;49.15;;;;;;;2.43;100.00;98276.00;4993153;28;20033;-77
2021/10/30 06:18:17;;;;;;;124.45;48.03;;;;;;;2.45;100.00;98281.97;4993053;28;20109;-77
2021/10/30 06:20:42;;;;;;;138.45;45.38;;;;;;;2.48;100.00;98284.22;4991223;28;20471;-77
2021/10/30 06:23:08;;;;;;;129.98;46.47;;;;;;;2.49;100.00;98285.88;4992492;28;20038;-78
2021/10/30 06:25:34;;;;;;;147.90;48.28;;;;;;;2.54;100.00;98292.19;4988814;28;20054;-78
2021/10/30 06:27:59;;;;;;;119.82;46.15;;;;;;;2.55;100.00;98295.72;5012280;28;20033;-78
2021/10/30 06:30:25;;;;;;;141.93;50.33;;;;;;;2.45;100.00;98299.00;4994372;28;20022;-78
2021/10/30 06:32:52;;;;;;;117.60;46.53;;;;;;;2.52;100.00;98288.09;4991992;28;20521;-79
2021/10/30 06:35:18;;;;;;;138.32;45.75;;;;;;;2.58;100.00;98284.44;4990926;28;20018;-79
2021/10/30 06:37:43;;;;;;;130.95;44.05;;;;;;;2.54;100.00;98284.09;5001642;28;20034;-80
2021/10/30 06:40:12;;;;;;;124.32;46.08;;;;;;;2.68;100.00;98290.91;5015194;28;20053;-75
2021/10/30 06:42:37;;;;;;;264.17;48.72;;;;;;;2.73;100.00;98284.78;5016844;28;20065;-71
2021/10/30 06:45:05;;;;;;;102.15;45.97;;;;;;;2.85;100.00;98296.38;5016808;28;20031;-72
2021/10/30 06:47:31;;;;;;;122.65;45.15;;;;;;;2.92;100.00;98296.25;5014673;28;20018;-76
2021/10/30 06:50:01;;;;;;;100.88;44.13;;;;;;;2.92;100.00;98305.19;5005890;28;20128;-78
2021/10/30 06:52:37;;;;;;;112.53;44.97;;;;;;;2.87;100.00;98313.19;5006830;28;20050;-80
2021/10/30 06:55:08;;;;;;;109.60;46.40;;;;;;;2.92;100.00;98307.88;5002543;28;20011;-80
2021/10/30 06:57:34;;;;;;;103.85;43.67;;;;;;;2.97;100.00;98315.28;5016497;28;20022;-78
2021/10/30 07:00:03;;;;;;;129.82;45.88;;;;;;;2.95;100.00;98311.97;5018640;28;20022;-81
2021/10/30 07:02:28;;;;;;;98.95;42.47;;;;;;;2.97;100.00;98320.69;5015082;28;20022;-76
2021/10/30 07:04:55;;;;;;;112.93;44.92;;;;;;;2.96;100.00;98325.28;5018104;28;20018;-79
2021/10/30 07:07:20;;;;;;;110.20;45.20;;;;;;;2.96;100.00;98325.28;5012944;28;20034;-78
2021/10/30 07:09:45;;;;;;;100.53;43.80;;;;;;;3.06;100.00;98319.25;5016904;28;20031;-79
2021/10/30 07:12:11;;;;;;;104.68;45.50;;;;;;;2.98;100.00;98320.44;5014894;28;20026;-79
2021/10/30 07:14:36;;;;;;;115.15;42.47;;;;;;;2.92;100.00;98325.97;5015786;28;20018;-74
2021/10/30 07:17:02;;;;;;;120.93;41.50;;;;;;;2.96;100.00;98317.16;5017585;28;20018;-75
2021/10/30 07:19:29;;;;;;;112.50;43.97;;;;;;;2.89;100.00;98319.16;5021043;28;20015;-73
2021/10/30 07:21:54;;;;;;;100.63;43.15;;;;;;;3.05;100.00;98320.31;5020965;28;20018;-73
2021/10/30 07:24:20;;;;;;;91.45;42.72;;;;;;;3.16;100.00;98316.78;5020480;28;20030;-73
2021/10/30 07:26:46;;;;;;;107.18;43.95;;;;;;;3.06;100.00;98319.25;5020894;28;20034;-75
2021/10/30 07:29:12;;;;;;;115.82;44.80;;;;;;;3.08;100.00;98312.56;5020273;28;20042;-74
2021/10/30 07:31:38;;;;;;;88.18;41.22;;;;;;;3.00;100.00;98312.94;5020747;28;20034;-73
2021/10/30 07:34:03;;;;;;;94.13;44.05;;;;;;;3.02;100.00;98313.50;5020668;28;20018;-73
2021/10/30 07:36:29;;;;;;;91.55;41.33;;;;;;;3.05;100.00;98313.03;5021029;28;20026;-73
2021/10/30 07:38:54;;;;;;;93.63;41.50;;;;;;;3.15;100.00;98323.22;5020139;28;20023;-73
2021/10/30 07:41:20;;;;;;;99.20;40.53;;;;;;;3.11;100.00;98325.59;5020472;28;20034;-73
2021/10/30 07:43:45;;;;;;;88.28;41.72;;;;;;;3.25;100.00;98326.16;5020503;28;20045;-72
2021/10/30 07:46:11;;;;;;;95.05;43.13;;;;;;;3.29;100.00;98318.38;5019964;28;20025;-74
2021/10/30 07:48:38;;;;;;;104.40;44.53;;;;;;;3.35;100.00;98317.44;5020500;28;20024;-73
2021/10/30 07:51:04;;;;;;;114.10;42.70;;;;;;;3.31;100.00;98322.50;5020394;28;20025;-75
2021/10/30 07:53:29;;;;;;;106.00;44.40;;;;;;;3.40;100.00;98325.63;5020380;28;20014;-72
2021/10/30 07:55:55;;;;;;;95.47;41.97;;;;;;;3.19;100.00;98330.63;5020374;28;20041;-73
2021/10/30 07:58:20;;;;;;;100.38;43.33;;;;;;;3.31;100.00;98325.19;5019827;28;20045;-73
2021/10/30 08:00:46;;;;;;;97.72;42.97;;;;;;;3.46;100.00;98330.91;5019805;28;20010;-73
2021/10/30 08:03:12;;;;;;;100.63;43.08;;;;;;;3.72;100.00;98326.81;5019417;28;20030;-74
2021/10/30 08:05:38;;;;;;;89.85;42.95;;;;;;;3.89;100.00;98324.13;5020470;28;20045;-73
2021/10/30 08:08:04;;;;;;;95.97;43.67;;;;;;;3.90;100.00;98325.75;5019736;28;20023;-73
2021/10/30 08:10:31;;;;;;;80.95;41.13;;;;;;;3.84;100.00;98330.28;5019401;28;20020;-73
2021/10/30 08:12:57;;;;;;;92.20;41.47;;;;;;;3.79;100.00;98320.16;5019505;28;20053;-72
2021/10/30 08:15:23;;;;;;;97.97;41.08;;;;;;;3.73;100.00;98321.13;5019334;28;20009;-73
2021/10/30 08:17:52;;;;;;;102.05;43.47;;;;;;;3.62;100.00;98318.50;5019859;28;20038;-73
2021/10/30 08:20:19;;;;;;;92.03;42.55;;;;;;;3.60;100.00;98316.00;5019872;28;21301;-74
2021/10/30 08:22:46;;;;;;;95.63;41.72;;;;;;;3.62;100.00;98323.91;5019133;28;20027;-73
2021/10/30 08:25:11;;;;;;;92.53;45.72;;;;;;;3.61;100.00;98328.47;5019756;28;20026;-73
2021/10/30 08:27:38;;;;;;;92.15;41.38;;;;;;;3.51;100.00;98319.38;5019256;28;20018;-73
2021/10/30 08:30:05;;;;;;;95.95;43.65;;;;;;;3.56;100.00;98314.06;5019664;28;20017;-73
2021/10/30 08:32:30;;;;;;;88.30;41.35;;;;;;;3.74;100.00;98316.56;5019167;28;20022;-74
2021/10/30 08:34:56;;;;;;;90.30;44.15;;;;;;;3.72;100.00;98314.09;5018862;28;20101;-75
2021/10/30 08:37:21;;;;;;;108.95;44.40;;;;;;;3.63;100.00;98315.53;5019870;28;20077;-73
2021/10/30 08:39:47;;;;;;;94.78;43.63;;;;;;;3.67;100.00;98322.09;5019420;28;20014;-73
2021/10/30 08:42:12;;;;;;;91.70;41.03;;;;;;;3.66;100.00;98312.38;5019350;28;20028;-74
2021/10/30 08:44:39;;;;;;;85.63;42.47;;;;;;;3.82;100.00;98309.94;5019390;28;20041;-73
2021/10/30 08:47:06;;;;;;;87.15;42.03;;;;;;;3.97;100.00;98307.50;5019268;28;20029;-73
2021/10/30 08:49:35;;;;;;;94.90;43.15;;;;;;;4.00;100.00;98302.41;5018759;28;20025;-74
2021/10/30 08:52:00;;;;;;;99.03;44.85;;;;;;;3.93;100.00;98293.63;5019341;28;20006;-73
2021/10/30 08:54:25;;;;;;;85.38;42.08;;;;;;;4.03;100.00;98299.22;5019232;28;20053;-74
2021/10/30 08:56:51;;;;;;;99.28;46.45;;;;;;;4.07;100.00;98294.94;5019179;28;20042;-73
2021/10/30 08:59:16;;;;;;;102.30;44.35;;;;;;;3.97;100.00;98285.84;5019049;28;20038;-75
2021/10/30 09:01:47;;;;;;;98.10;44.97;;;;;;;3.99;100.00;98281.81;5018789;28;20022;-73
2021/10/30 09:04:17;;;;;;;92.45;45.47;;;;;;;4.09;100.00;98287.41;5018935;28;20009;-73
2021/10/30 09:07:03;;;;;;;106.53;43.25;;;;;;;4.20;100.00;98277.56;5019091;28;20034;-72
2021/10/30 09:09:31;;;;;;;102.53;45.03;;;;;;;4.30;100.00;98286.66;5011912;28;20031;-73
2021/10/30 09:12:01;;;;;;;95.47;44.40;;;;;;;4.24;100.00;98284.13;5018859;28;20029;-73
2021/10/30 09:14:28;;;;;;;96.07;44.97;;;;;;;4.24;100.00;98282.25;5018822;28;20015;-73
2021/10/30 09:17:18;;;;;;;93.25;44.95;;;;;;;4.11;100.00;98282.56;5018963;28;20003;-73
2021/10/30 09:19:47;;;;;;;91.53;45.08;;;;;;;4.30;100.00;98273.13;5018288;28;20014;-74
2021/10/30 09:22:15;;;;;;;98.80;43.97;;;;;;;4.38;100.00;98282.75;5017979;28;20093;-73
2021/10/30 09:25:04;;;;;;;98.88;46.65;;;;;;;4.45;100.00;98285.28;5018683;28;20074;-74
2021/10/30 09:27:43;;;;;;;98.60;45.35;;;;;;;4.37;100.00;98278.38;5018708;28;20037;-74
2021/10/30 09:30:09;;;;;;;105.68;48.03;;;;;;;4.46;100.00;98282.31;5018085;28;20026;-73
2021/10/30 09:32:34;;;;;;;91.63;45.35;;;;;;;4.16;100.00;98276.44;5018707;28;20053;-76
2021/10/30 09:35:02;;;;;;;105.55;47.90;;;;;;;3.91;100.00;98276.84;5018556;28;20014;-73
2021/10/30 09:37:34;;;;;;;101.30;47.75;;;;;;;3.95;100.00;98277.13;5018874;28;20038;-73
2021/10/30 09:40:15;;;;;;;108.68;49.42;;;;;;;4.18;100.00;98280.53;5018466;28;20010;-74
2021/10/30 09:42:46;;;;;;;92.28;44.25;;;;;;;4.57;100.00;98269.75;5018271;28;20026;-72
2021/10/30 09:45:13;;;;;;;97.55;45.47;;;;;;;4.74;100.00;98267.81;5018309;28;20018;-73
2021/10/30 09:47:42;;;;;;;95.07;46.05;;;;;;;4.63;100.00;98266.03;5018261;28;20038;-73
2021/10/30 09:50:31;;;;;;;107.07;49.67;;;;;;;4.51;100.00;98270.75;5018280;28;20042;-73
2021/10/30 09:52:57;;;;;;;101.07;46.50;;;;;;;4.26;100.00;98271.97;5018343;28;20014;-73
2021/10/30 09:55:27;;;;;;;96.97;48.25;;;;;;;4.41;100.00;98265.19;5018306;28;20049;-73
2021/10/30 09:58:12;;;;;;;107.97;49.13;;;;;;;4.49;100.00;98270.97;5018411;28;20033;-74
2021/10/30 10:00:38;;;;;;;96.88;45.63;;;;;;;4.29;100.00;98266.06;5018035;28;20030;-73
2021/10/30 10:03:03;;;;;;;107.38;47.42;;;;;;;4.52;100.00;98272.38;5018249;28;20049;-73
2021/10/30 10:05:36;;;;;;;95.28;46.72;;;;;;;4.56;100.00;98265.38;5018219;28;20013;-74
2021/10/30 10:08:02;;;;;;;101.38;47.65;;;;;;;4.47;100.00;98256.88;5018420;28;20010;-74
2021/10/30 10:10:27;;;;;;;107.18;49.47;;;;;;;4.57;100.00;98253.50;5018204;28;20074;-74
2021/10/30 10:12:53;;;;;;;101.78;48.72;;;;;;;4.37;100.00;98242.34;5018059;28;20026;-74
2021/10/30 10:15:21;;;;;;;99.57;48.90;;;;;;;4.61;100.00;98239.19;5018094;28;20034;-74
2021/10/30 10:17:48;;;;;;;101.32;46.33;;;;;;;4.72;100.00;98237.44;5018211;28;20011;-73
2021/10/30 10:20:14;;;;;;;97.43;47.40;;;;;;;4.74;100.00;98251.56;5018044;28;20014;-74
2021/10/30 10:22:41;;;;;;;93.95;47.65;;;;;;;4.78;100.00;98252.69;5018100;28;20014;-73
2021/10/30 10:25:27;;;;;;;101.93;47.58;;;;;;;4.86;100.00;98249.53;5018169;28;20010;-74
2021/10/30 10:27:55;;;;;;;97.50;47.72;;;;;;;4.94;100.00;98245.59;5017629;28;20101;-74
2021/10/30 10:30:20;;;;;;;95.63;46.78;;;;;;;5.07;100.00;98246.03;5018047;28;20018;-74
2021/10/30 10:32:47;;;;;;;96.75;47.25;;;;;;;4.79;100.00;98238.88;5020886;28;20018;-75
2021/10/30 10:35:39;;;;;;;100.18;49.17;;;;;;;5.09;100.00;98232.22;5021795;28;20046;-74
2021/10/30 10:38:05;;;;;;;101.57;49.42;;;;;;;5.10;100.00;98231.97;5019970;28;20032;-73
2021/10/30 17:04:08;;;;;;;120.47;58.47;;;;;;;3.68;100.00;98187.69;4925535;23;20043;-78
2021/10/30 17:06:33;;;;;;;118.55;55.70;;;;;;;3.64;100.00;98181.13;4918907;29;20084;-76
2021/10/30 17:08:59;;;;;;;129.77;56.92;;;;;;;3.55;100.00;98188.84;4920545;29;20024;-76
2021/10/30 17:11:26;;;;;;;122.75;59.95;;;;;;;3.51;100.00;98190.38;4922125;29;20017;-73
2021/10/30 17:14:00;;;;;;;122.28;56.47;;;;;;;3.46;100.00;98195.72;4922063;29;20021;-73
2021/10/30 17:16:26;;;;;;;127.10;58.17;;;;;;;3.41;100.00;98200.22;4921954;29;20051;-76
2021/10/30 17:18:52;;;;;;;116.28;54.83;;;;;;;3.31;100.00;98202.72;4921888;29;20021;-74
2021/10/30 17:21:17;;;;;;;113.78;55.42;;;;;;;3.29;100.00;98199.47;4921685;29;20024;-81
2021/10/30 17:23:44;;;;;;;111.07;55.25;;;;;;;3.23;100.00;98206.63;4912309;29;20017;-80
2021/10/30 17:26:13;;;;;;;115.05;54.60;;;;;;;3.23;100.00;98212.88;4911251;29;20012;-75
2021/10/30 17:28:38;;;;;;;106.38;53.08;;;;;;;3.34;100.00;98219.28;4906396;29;20044;-79
2021/10/30 17:31:07;;;;;;;116.25;55.90;;;;;;;3.29;100.00;98221.09;4913695;29;20016;-80
2021/10/30 17:33:32;;;;;;;114.70;53.83;;;;;;;3.26;100.00;98221.56;4912557;29;20028;-78